sensor_id;sensor_type;location;lat;lon;timestamp;pressure;altitude;pressure_sealevel;temperature;humidity
8501;BME280;4288;48.484;10.024;2024-02-23T15:15:23;93805.66;;;18.84;52.35
8501;BME280;4288;48.484;10.024;2024-02-23T15:17:50;93815.06;;;19.29;51.48
8501;BME280;4288;48.484;10.024;2024-02-23T15:20:18;93812.28;;;19.69;50.94
8501;BME280;4288;48.484;10.024;2024-02-23T15:22:46;93808.34;;;20.01;49.99
8501;BME280;4288;48.484;10.024;2024-02-23T15:26:47;93806.84;;;20.68;53.65
8501;BME280;4288;48.484;10.024;2024-02-23T15:29:14;93803.25;;;20.88;51.29
8501;BME280;4288;48.484;10.024;2024-02-23T15:31:41;93795.41;;;21.01;49.75
8501;BME280;4288;48.484;10.024;2024-02-23T15:34:09;93791.00;;;21.14;49.01
8501;BME280;4288;48.484;10.024;2024-02-23T15:36:36;93789.56;;;21.24;48.20
8501;BME280;4288;48.484;10.024;2024-02-23T15:39:04;93794.78;;;21.34;47.75
8501;BME280;4288;48.484;10.024;2024-02-23T15:41:32;93810.13;;;21.42;47.43
8501;BME280;4288;48.484;10.024;2024-02-23T15:44:01;93808.91;;;21.49;47.35
8501;BME280;4288;48.484;10.024;2024-02-23T15:46:29;93811.88;;;21.56;46.93
8501;BME280;4288;48.484;10.024;2024-02-23T15:48:57;93814.59;;;21.62;46.87
8501;BME280;4288;48.484;10.024;2024-02-23T15:51:24;93807.19;;;21.68;46.77
8501;BME280;4288;48.484;10.024;2024-02-23T15:53:52;93806.47;;;21.73;46.58
8501;BME280;4288;48.484;10.024;2024-02-23T15:56:20;93808.47;;;21.78;46.42
8501;BME280;4288;48.484;10.024;2024-02-23T15:58:48;93810.97;;;21.81;46.44
8501;BME280;4288;48.484;10.024;2024-02-23T16:01:16;93799.81;;;21.85;46.41
8501;BME280;4288;48.484;10.024;2024-02-23T16:03:44;93792.16;;;21.89;46.29
8501;BME280;4288;48.484;10.024;2024-02-23T16:06:11;93802.06;;;21.92;46.33
8501;BME280;4288;48.484;10.024;2024-02-23T16:08:40;93793.66;;;21.95;46.06
8501;BME280;4288;48.484;10.024;2024-02-23T16:11:09;93793.41;;;21.99;45.94
8501;BME280;4288;48.484;10.024;2024-02-23T16:13:37;93800.59;;;22.02;46.10
8501;BME280;4288;48.484;10.024;2024-02-23T16:16:05;93786.00;;;22.05;45.94
8501;BME280;4288;48.484;10.024;2024-02-23T16:18:35;93781.03;;;22.09;45.96
8501;BME280;4288;48.484;10.024;2024-02-23T16:21:03;93786.97;;;22.13;46.18
8501;BME280;4288;48.484;10.024;2024-02-23T16:23:30;93791.16;;;22.14;45.58
8501;BME280;4288;48.484;10.024;2024-02-23T16:25:58;93800.09;;;22.14;45.64
8501;BME280;4288;48.484;10.024;2024-02-23T16:28:25;93803.81;;;22.17;45.74
8501;BME280;4288;48.484;10.024;2024-02-23T16:30:53;93807.53;;;22.20;45.58
8501;BME280;4288;48.484;10.024;2024-02-23T16:33:20;93799.56;;;22.22;45.70
8501;BME280;4288;48.484;10.024;2024-02-23T16:35:49;93803.53;;;22.26;45.67
8501;BME280;4288;48.484;10.024;2024-02-23T16:38:16;93797.59;;;22.28;45.59
8501;BME280;4288;48.484;10.024;2024-02-23T16:40:44;93788.44;;;22.31;45.32
8501;BME280;4288;48.484;10.024;2024-02-23T16:43:11;93694.25;;;21.67;45.27
8501;BME280;4288;48.484;10.024;2024-02-23T16:45:39;93790.41;;;22.36;45.45
8501;BME280;4288;48.484;10.024;2024-02-23T16:48:06;93791.16;;;22.42;45.58
8501;BME280;4288;48.484;10.024;2024-02-23T16:50:36;93808.47;;;22.44;45.49
8501;BME280;4288;48.484;10.024;2024-02-23T16:53:06;93828.00;;;21.76;37.84
8501;BME280;4288;48.484;10.024;2024-02-23T16:55:33;93847.72;;;21.60;40.35
8501;BME280;4288;48.484;10.024;2024-02-23T16:58:00;93844.50;;;21.62;42.15
8501;BME280;4288;48.484;10.024;2024-02-23T17:00:28;93850.47;;;21.71;43.39
8501;BME280;4288;48.484;10.024;2024-02-23T17:02:56;93847.81;;;21.82;44.26
8501;BME280;4288;48.484;10.024;2024-02-23T17:05:26;93849.78;;;21.93;44.86
8501;BME280;4288;48.484;10.024;2024-02-23T17:07:54;93830.53;;;22.02;45.51
8501;BME280;4288;48.484;10.024;2024-02-23T17:10:23;93810.22;;;22.14;45.94
8501;BME280;4288;48.484;10.024;2024-02-23T17:12:50;93800.56;;;22.24;46.18
8501;BME280;4288;48.484;10.024;2024-02-23T17:15:19;93807.75;;;22.33;46.67
8501;BME280;4288;48.484;10.024;2024-02-23T17:17:46;93810.94;;;22.42;46.73
8501;BME280;4288;48.484;10.024;2024-02-23T17:20:14;93813.41;;;22.51;46.75
8501;BME280;4288;48.484;10.024;2024-02-23T17:22:43;93826.28;;;22.56;46.88
8501;BME280;4288;48.484;10.024;2024-02-23T17:25:11;93837.44;;;22.64;47.18
8501;BME280;4288;48.484;10.024;2024-02-23T17:27:39;93832.22;;;22.66;46.22
8501;BME280;4288;48.484;10.024;2024-02-23T17:30:08;93815.13;;;22.65;45.67
8501;BME280;4288;48.484;10.024;2024-02-23T17:32:35;93815.13;;;22.65;45.37
8501;BME280;4288;48.484;10.024;2024-02-23T17:35:03;93821.59;;;22.62;45.38
8501;BME280;4288;48.484;10.024;2024-02-23T17:40:00;93826.56;;;22.58;45.78
8501;BME280;4288;48.484;10.024;2024-02-23T17:42:28;93832.25;;;22.60;45.58
8501;BME280;4288;48.484;10.024;2024-02-23T17:44:57;93840.16;;;22.64;45.37
8501;BME280;4288;48.484;10.024;2024-02-23T17:47:24;93842.63;;;22.67;45.86
8501;BME280;4288;48.484;10.024;2024-02-23T17:49:51;93842.38;;;22.71;45.38
8501;BME280;4288;48.484;10.024;2024-02-23T17:52:19;93839.38;;;22.74;45.65
8501;BME280;4288;48.484;10.024;2024-02-23T17:54:46;93834.41;;;22.78;45.50
8501;BME280;4288;48.484;10.024;2024-02-23T17:57:13;93837.63;;;22.82;45.60
8501;BME280;4288;48.484;10.024;2024-02-23T17:59:41;93833.19;;;22.85;45.44
8501;BME280;4288;48.484;10.024;2024-02-23T18:02:09;93827.22;;;22.86;45.36
8501;BME280;4288;48.484;10.024;2024-02-23T18:04:37;93837.13;;;22.89;45.38
8501;BME280;4288;48.484;10.024;2024-02-23T18:07:05;93834.91;;;22.93;45.35
8501;BME280;4288;48.484;10.024;2024-02-23T18:09:33;93837.84;;;22.95;45.53
8501;BME280;4288;48.484;10.024;2024-02-23T18:12:00;93838.09;;;22.97;45.39
8501;BME280;4288;48.484;10.024;2024-02-23T18:14:27;93839.81;;;23.00;45.36
8501;BME280;4288;48.484;10.024;2024-02-23T18:16:55;93828.91;;;23.00;45.26
8501;BME280;4288;48.484;10.024;2024-02-23T18:19:24;93819.47;;;23.01;45.28
8501;BME280;4288;48.484;10.024;2024-02-23T18:21:51;93813.06;;;23.05;45.36
8501;BME280;4288;48.484;10.024;2024-02-23T18:24:18;93813.28;;;23.07;45.16
8501;BME280;4288;48.484;10.024;2024-02-23T18:26:46;93812.78;;;23.08;44.91
8501;BME280;4288;48.484;10.024;2024-02-23T18:29:15;93814.28;;;23.09;44.94
8501;BME280;4288;48.484;10.024;2024-02-23T18:31:42;93815.75;;;23.10;45.21
8501;BME280;4288;48.484;10.024;2024-02-23T18:34:10;93815.25;;;23.12;45.08
8501;BME280;4288;48.484;10.024;2024-02-23T18:36:39;93816.75;;;23.13;44.74
8501;BME280;4288;48.484;10.024;2024-02-23T18:39:06;93825.66;;;23.13;44.77
8501;BME280;4288;48.484;10.024;2024-02-23T18:41:35;93827.13;;;23.14;44.82
8501;BME280;4288;48.484;10.024;2024-02-23T18:44:03;93829.09;;;23.14;45.05
8501;BME280;4288;48.484;10.024;2024-02-23T18:46:31;93834.56;;;23.14;44.93
8501;BME280;4288;48.484;10.024;2024-02-23T18:48:59;93820.44;;;23.15;44.85
8501;BME280;4288;48.484;10.024;2024-02-23T18:51:26;93816.47;;;23.16;44.58
8501;BME280;4288;48.484;10.024;2024-02-23T18:53:56;93825.16;;;23.15;44.70
8501;BME280;4288;48.484;10.024;2024-02-23T18:56:24;93824.66;;;23.16;44.68
8501;BME280;4288;48.484;10.024;2024-02-23T18:58:51;93829.34;;;23.16;44.75
8501;BME280;4288;48.484;10.024;2024-02-23T19:01:18;93825.41;;;23.17;44.75
8501;BME280;4288;48.484;10.024;2024-02-23T19:03:46;93830.84;;;23.17;44.31
8501;BME280;4288;48.484;10.024;2024-02-23T19:06:13;93825.41;;;23.17;44.33
8501;BME280;4288;48.484;10.024;2024-02-23T19:08:41;93828.88;;;23.17;44.38
8501;BME280;4288;48.484;10.024;2024-02-23T19:11:09;93830.84;;;23.17;44.52
8501;BME280;4288;48.484;10.024;2024-02-23T19:13:37;93834.31;;;23.17;44.48
8501;BME280;4288;48.484;10.024;2024-02-23T19:16:10;93830.84;;;23.17;44.48
8501;BME280;4288;48.484;10.024;2024-02-23T19:18:38;93829.34;;;23.16;44.43
8501;BME280;4288;48.484;10.024;2024-02-23T19:21:06;93830.84;;;23.17;44.29
8501;BME280;4288;48.484;10.024;2024-02-23T19:23:34;93831.34;;;23.15;44.33
8501;BME280;4288;48.484;10.024;2024-02-23T19:26:02;93832.59;;;23.14;44.45
8501;BME280;4288;48.484;10.024;2024-02-23T19:28:30;93836.06;;;23.15;44.31
8501;BME280;4288;48.484;10.024;2024-02-23T19:30:58;93829.09;;;23.14;44.08
8501;BME280;4288;48.484;10.024;2024-02-23T19:33:25;93833.09;;;23.13;44.20
8501;BME280;4288;48.484;10.024;2024-02-23T19:35:53;93829.63;;;23.12;44.02
8501;BME280;4288;48.484;10.024;2024-02-23T19:38:21;93834.31;;;23.12;44.17
8501;BME280;4288;48.484;10.024;2024-02-23T19:40:48;93839.28;;;23.13;44.15
8501;BME280;4288;48.484;10.024;2024-02-23T19:43:15;93841.78;;;23.11;43.98
8501;BME280;4288;48.484;10.024;2024-02-23T19:45:44;93841.03;;;23.11;43.98
8501;BME280;4288;48.484;10.024;2024-02-23T19:48:11;93836.81;;;23.10;44.13
8501;BME280;4288;48.484;10.024;2024-02-23T19:50:39;93836.09;;;23.09;44.11
8501;BME280;4288;48.484;10.024;2024-02-23T19:53:06;93822.94;;;23.08;43.73
8501;BME280;4288;48.484;10.024;2024-02-23T19:55:34;93816.75;;;23.07;43.98
8501;BME280;4288;48.484;10.024;2024-02-23T19:58:01;93815.25;;;23.06;43.77
8501;BME280;4288;48.484;10.024;2024-02-23T20:00:28;93824.19;;;23.07;43.86
8501;BME280;4288;48.484;10.024;2024-02-23T20:02:57;93817.75;;;23.04;43.94
8501;BME280;4288;48.484;10.024;2024-02-23T20:05:25;93818.50;;;23.05;43.73
8501;BME280;4288;48.484;10.024;2024-02-23T20:07:52;93820.47;;;23.04;43.92
8501;BME280;4288;48.484;10.024;2024-02-23T20:10:20;93826.44;;;23.02;43.71
8501;BME280;4288;48.484;10.024;2024-02-23T20:12:49;93828.91;;;23.00;43.71
8501;BME280;4288;48.484;10.024;2024-02-23T20:15:16;93822.72;;;23.00;43.85
8501;BME280;4288;48.484;10.024;2024-02-23T20:17:43;93827.44;;;22.99;43.63
8501;BME280;4288;48.484;10.024;2024-02-23T20:20:15;93821.75;;;22.97;43.70
8501;BME280;4288;48.484;10.024;2024-02-23T20:22:43;93832.66;;;22.97;43.81
8501;BME280;4288;48.484;10.024;2024-02-23T20:25:10;93830.41;;;22.96;43.64
8501;BME280;4288;48.484;10.024;2024-02-23T20:27:37;93830.41;;;22.96;43.54
8501;BME280;4288;48.484;10.024;2024-02-23T20:30:07;93830.91;;;22.94;43.75
8501;BME280;4288;48.484;10.024;2024-02-23T20:32:35;93821.28;;;22.93;43.51
8501;BME280;4288;48.484;10.024;2024-02-23T20:35:03;93831.19;;;22.91;43.56
8501;BME280;4288;48.484;10.024;2024-02-23T20:37:34;93834.41;;;22.89;43.37
8501;BME280;4288;48.484;10.024;2024-02-23T20:40:01;93841.84;;;22.89;43.44
8501;BME280;4288;48.484;10.024;2024-02-23T20:42:29;93844.56;;;22.89;43.69
8501;BME280;4288;48.484;10.024;2024-02-23T20:44:56;93838.34;;;22.88;43.48
8501;BME280;4288;48.484;10.024;2024-02-23T20:47:24;93843.56;;;22.86;43.50
8501;BME280;4288;48.484;10.024;2024-02-23T20:49:51;93837.88;;;22.84;43.44
8501;BME280;4288;48.484;10.024;2024-02-23T20:52:19;93843.31;;;22.84;43.57
8501;BME280;4288;48.484;10.024;2024-02-23T20:54:48;93837.63;;;22.82;43.67
8501;BME280;4288;48.484;10.024;2024-02-23T20:57:16;93842.34;;;22.82;43.55
8501;BME280;4288;48.484;10.024;2024-02-23T20:59:43;93837.38;;;22.80;43.43
8501;BME280;4288;48.484;10.024;2024-02-23T21:02:11;93835.91;;;22.79;43.83
8501;BME280;4288;48.484;10.024;2024-02-23T21:04:44;93832.94;;;22.77;43.54
8501;BME280;4288;48.484;10.024;2024-02-23T21:07:12;93829.47;;;22.77;43.41
8501;BME280;4288;48.484;10.024;2024-02-23T21:09:41;93828.47;;;22.74;43.57
8501;BME280;4288;48.484;10.024;2024-02-23T21:12:09;93827.00;;;22.73;43.70
8501;BME280;4288;48.484;10.024;2024-02-23T21:14:37;93823.53;;;22.73;43.52
8501;BME280;4288;48.484;10.024;2024-02-23T21:17:05;93825.50;;;22.72;43.40
8501;BME280;4288;48.484;10.024;2024-02-23T21:19:32;93830.72;;;22.70;43.51
8501;BME280;4288;48.484;10.024;2024-02-23T21:21:59;93828.50;;;22.69;43.36
8501;BME280;4288;48.484;10.024;2024-02-23T21:24:28;93829.75;;;22.68;43.54
8501;BME280;4288;48.484;10.024;2024-02-23T21:26:56;93822.09;;;22.66;43.61
8501;BME280;4288;48.484;10.024;2024-02-23T21:29:25;93816.41;;;22.64;43.41
8501;BME280;4288;48.484;10.024;2024-02-23T21:31:52;93820.34;;;22.63;43.74
8501;BME280;4288;48.484;10.024;2024-02-23T21:34:19;93821.59;;;22.62;43.57
8501;BME280;4288;48.484;10.024;2024-02-23T21:36:47;93809.97;;;22.62;43.43
8501;BME280;4288;48.484;10.024;2024-02-23T21:39:14;93814.41;;;22.59;43.42
8501;BME280;4288;48.484;10.024;2024-02-23T21:41:41;93812.19;;;22.58;43.32
8501;BME280;4288;48.484;10.024;2024-02-23T21:44:09;93815.38;;;22.56;43.43
8501;BME280;4288;48.484;10.024;2024-02-23T21:46:37;93819.09;;;22.53;43.19
8501;BME280;4288;48.484;10.024;2024-02-23T21:49:05;93817.13;;;22.48;43.06
